Aviation Digital Data Service (ADDS)

Output produced by METARs form (0510 UTC 21 September 2017)
found at http://www.aviationweather.gov/adds/metars/
 
RKSG 210455Z 00000KT 7SM CLR 25/12 A2993 RMK AO2A SLP136 T02480121 $
TAF RKSG 210400Z 2104/2210 VRB06KT 9999 SKC QNH2993INS TX26/2206Z TN14/2121Z
       
RKTU 210500Z 33004KT 9999 FEW030 FEW200 25/12 Q1013 NOSIG
TAF RKTU 210500Z 2106/2212 27006KT 9999 SCT030 SCT200 TN11/2121Z TX26/2206Z
       
RKTN 210500Z 11002KT 9999 FEW050 SCT230 26/10 Q1012 NOSIG
TAF RKTN 210500Z 2106/2212 13006KT CAVOK TN13/2120Z TX29/2207Z
       
RKPK 210500Z 14006KT 9999 SCT050 BKN200 25/14 Q1013 NOSIG
TAF RKPK 210500Z 2106/2212 14006KT 9999 SCT030 BKN200 TX27/2106Z TN15/2121Z 
     BECMG 2110/2111 36006KT 
     BECMG 2202/2203 18006KT
       
RKSS 210500Z 27002KT 9999 FEW040 25/10 Q1013 NOSIG
TAF RKSS 210500Z 2106/2212 29005KT CAVOK TN13/2121Z TX25/2206Z 
     BECMG 2117/2118 07005KT 
     BECMG 2202/2203 25006KT
       
RKSI 210500Z 29009KT 230V330 CAVOK 24/11 Q1014 NOSIG
TAF RKSI 210500Z 2106/2212 28007KT CAVOK TN15/2120Z TX25/2205Z 
     BECMG 2111/2112 15006KT 6000 FEW030 SCT180 
     TEMPO 2112/2119 06005KT 
     BECMG 2205/2206 26007KT CAVOK
       
RKPC 210500Z 04008KT 010V070 CAVOK 22/13 Q1012 NOSIG
TAF RKPC 210500Z 2106/2212 05005KT 9999 FEW030 BKN180 TN20/2121Z TX25/2206Z 
     BECMG 2113/2114 17005KT 
     BECMG 2200/2201 07007KT
       
RKJK 210458Z AUTO 29009KT 10SM CLR 23/14 A2993 RMK AO2 CIG 200 RWY18 SLP139 T02310138 $
TAF RKJK 202300Z 2023/2205 VRB06KT 9999 FEW200 QNH2994INS 
     BECMG 2105/2106 32010G15KT 9999 FEW200 QNH2995INS WND VRB06KT AFT 2109 
     BECMG 2117/2118 VRB06KT 8000 BR FEW030 QNH2993INS TX25/2109Z TN13/2123Z
       
RKSO 210458Z 03001KT 7SM FEW030 FEW200 25/08 A2994 RMK AO2A SLPNO WND DATA ESTMD ALSTG ESTMD $
TAF RKSO 210300Z 2103/2209 VRB06KT 9999 FEW030 QNH2996INS TX26/2203Z TN14/2113Z
       
RKSM 210400Z 02002KT 9999 FEW030 24/13 A2996
TAF RKSM 202300Z 2100/2206 24006KT 9999 SCT040 TX25/2106Z TN14/2121Z
       
RKNY 210500Z 10007KT 070V140 CAVOK 22/15 Q1013 NOSIG
TAF RKNY 210500Z 2106/2212 10006KT CAVOK TN16/2121Z TX24/2205Z 
     BECMG 2110/2111 25006KT 
     BECMG 2201/2202 10007KT 
     BECMG 2210/2211 25006KT